createdAt,value
2023-03-07T00:00:47.789Z,13.57
2023-03-07T00:03:16.901Z,12.30
2023-03-07T00:05:44.463Z,9.88
2023-03-07T00:08:11.616Z,15.93
2023-03-07T00:10:38.665Z,18.60
2023-03-07T00:13:05.857Z,18.52
2023-03-07T00:15:32.998Z,14.38
2023-03-07T00:18:00.083Z,16.70
2023-03-07T00:20:27.637Z,14.13
2023-03-07T00:22:54.654Z,12.50
2023-03-07T00:25:21.982Z,14.23
2023-03-07T00:27:49.307Z,12.90
2023-03-07T00:30:16.552Z,8.52
2023-03-07T00:32:43.653Z,10.45
2023-03-07T00:35:10.680Z,13.13
2023-03-07T00:37:37.766Z,11.48
2023-03-07T00:40:06.889Z,8.93
2023-03-07T00:42:34.085Z,13.85
2023-03-07T00:45:01.187Z,14.82
2023-03-07T00:47:28.977Z,11.82
2023-03-07T00:49:56.033Z,10.82
2023-03-07T00:52:23.546Z,12.20
2023-03-07T00:54:50.544Z,19.25
2023-03-07T00:57:18.135Z,8.82
2023-03-07T00:59:45.218Z,14.13
2023-03-07T01:02:12.242Z,12.50
2023-03-07T01:04:39.240Z,17.27
2023-03-07T01:07:06.306Z,11.85
2023-03-07T01:09:33.323Z,9.40
2023-03-07T01:12:00.450Z,8.18
2023-03-07T01:14:28.476Z,8.57
2023-03-07T01:16:55.564Z,7.50
2023-03-07T01:19:23.622Z,7.07
2023-03-07T01:21:50.721Z,6.72
2023-03-07T01:24:18.262Z,7.22
2023-03-07T01:26:45.400Z,8.25
2023-03-07T01:29:12.743Z,8.43
2023-03-07T01:31:39.875Z,8.80
2023-03-07T01:34:07.221Z,7.82
2023-03-07T01:36:36.631Z,5.93
2023-03-07T01:39:06.558Z,5.15
2023-03-07T01:41:35.688Z,7.80
2023-03-07T01:44:05.947Z,6.28
2023-03-07T01:46:44.745Z,6.18
2023-03-07T01:49:19.521Z,6.32
2023-03-07T01:51:53.147Z,6.38
2023-03-07T01:54:22.201Z,6.53
2023-03-07T01:56:49.362Z,10.05
2023-03-07T01:59:29.628Z,8.85
2023-03-07T02:02:01.325Z,6.07
2023-03-07T02:04:36.696Z,7.50
2023-03-07T02:07:04.165Z,6.15
2023-03-07T02:09:33.649Z,9.63
2023-03-07T02:12:01.744Z,9.88
2023-03-07T02:14:29.044Z,8.38
2023-03-07T02:16:56.145Z,15.07
2023-03-07T02:19:23.136Z,5.60
2023-03-07T02:22:05.066Z,11.35
2023-03-07T02:25:10.689Z,12.85
2023-03-07T02:27:39.748Z,4.25
2023-03-07T02:30:08.296Z,13.68
2023-03-07T02:32:35.441Z,12.93
2023-03-07T02:35:02.614Z,6.07
2023-03-07T02:37:37.039Z,12.00
2023-03-07T02:40:08.242Z,13.55
2023-03-07T02:42:39.291Z,12.50
2023-03-07T02:45:10.326Z,9.05
2023-03-07T02:47:37.570Z,17.88
2023-03-07T02:50:05.518Z,19.85
2023-03-07T02:52:32.640Z,14.57
2023-03-07T02:54:59.849Z,9.95
2023-03-07T02:57:26.882Z,4.70
2023-03-07T02:59:53.908Z,12.93
2023-03-07T03:02:20.927Z,6.22
2023-03-07T03:04:48.028Z,14.00
2023-03-07T03:07:15.118Z,4.57
2023-03-07T03:09:42.135Z,7.78
2023-03-07T03:12:09.299Z,15.40
2023-03-07T03:14:36.326Z,6.97
2023-03-07T03:17:03.909Z,7.57
2023-03-07T03:19:31.016Z,6.25
2023-03-07T03:21:58.956Z,8.50
2023-03-07T03:24:26.011Z,4.25
2023-03-07T03:26:57.572Z,8.45
2023-03-07T03:29:26.072Z,6.93
2023-03-07T03:31:53.073Z,6.05
2023-03-07T03:34:20.491Z,10.60
2023-03-07T03:36:47.880Z,14.45
2023-03-07T03:39:14.956Z,12.65
2023-03-07T03:41:42.023Z,13.23
2023-03-07T03:44:09.631Z,7.82
2023-03-07T03:46:37.425Z,7.47
2023-03-07T03:49:04.515Z,8.77
2023-03-07T03:51:31.523Z,6.95
2023-03-07T03:53:58.889Z,8.50
2023-03-07T03:56:27.729Z,11.63
2023-03-07T03:58:57.684Z,6.03
2023-03-07T04:01:27.701Z,18.80
2023-03-07T04:03:56.470Z,6.40
2023-03-07T04:06:32.480Z,3.80
2023-03-07T04:08:59.749Z,5.32
2023-03-07T04:11:27.736Z,8.75
2023-03-07T04:13:54.962Z,12.40
2023-03-07T04:16:22.693Z,10.77
2023-03-07T04:18:53.080Z,13.85
2023-03-07T04:21:20.959Z,6.78
2023-03-07T04:23:55.501Z,10.55
2023-03-07T04:26:22.746Z,6.10
2023-03-07T04:28:49.998Z,10.30
2023-03-07T04:31:23.091Z,7.95
2023-03-07T04:33:51.032Z,8.48
2023-03-07T04:36:18.401Z,3.85
2023-03-07T04:38:47.559Z,13.07
2023-03-07T04:41:17.820Z,9.23
2023-03-07T04:43:45.090Z,8.73
2023-03-07T04:46:14.726Z,7.10
2023-03-07T04:48:41.997Z,8.60
2023-03-07T04:51:09.129Z,7.50
2023-03-07T04:53:36.400Z,5.40
2023-03-07T04:56:06.243Z,4.72
2023-03-07T04:58:33.949Z,4.10
2023-03-07T05:01:02.693Z,5.80
2023-03-07T05:06:15.718Z,12.68
2023-03-07T05:08:42.840Z,13.07
2023-03-07T05:11:09.973Z,4.82
2023-03-07T05:13:37.070Z,13.25
2023-03-07T05:16:04.531Z,4.50
2023-03-07T05:18:31.848Z,10.98
2023-03-07T05:20:59.193Z,8.45
2023-03-07T05:23:26.428Z,3.08
2023-03-07T05:25:53.461Z,9.02
2023-03-07T05:28:21.254Z,5.38
2023-03-07T05:30:48.408Z,9.18
2023-03-07T05:33:15.975Z,8.75
2023-03-07T05:35:43.324Z,0.77
2023-03-07T05:38:10.557Z,5.07
2023-03-07T05:40:37.604Z,2.53
2023-03-07T05:43:04.957Z,2.13
2023-03-07T05:45:32.084Z,2.97
2023-03-07T05:47:59.557Z,2.47
2023-03-07T05:50:27.592Z,5.00
2023-03-07T05:52:54.786Z,1.42
2023-03-07T05:55:22.230Z,7.07
2023-03-07T05:57:50.161Z,2.50
2023-03-07T06:00:17.730Z,5.55
2023-03-07T06:02:44.923Z,5.57
2023-03-07T06:05:11.997Z,10.77
2023-03-07T06:07:39.100Z,6.38
2023-03-07T06:10:07.596Z,4.00
2023-03-07T06:12:34.621Z,3.65
2023-03-07T06:15:01.643Z,2.60
2023-03-07T06:17:29.440Z,9.98
2023-03-07T06:19:59.674Z,10.48
2023-03-07T06:22:27.725Z,2.95
2023-03-07T06:24:55.107Z,6.05
2023-03-07T06:27:22.413Z,2.53
2023-03-07T06:29:49.503Z,6.05
2023-03-07T06:32:16.729Z,5.38
2023-03-07T06:34:43.851Z,1.90
2023-03-07T06:37:10.977Z,2.35
2023-03-07T06:39:38.057Z,3.33
2023-03-07T06:42:05.261Z,1.90
2023-03-07T06:44:32.340Z,3.85
2023-03-07T06:46:59.534Z,7.10
2023-03-07T06:49:26.880Z,4.70
2023-03-07T06:51:54.808Z,3.47
2023-03-07T06:54:22.060Z,2.05
2023-03-07T06:56:49.145Z,4.00
2023-03-07T06:59:16.219Z,0.73
2023-03-07T07:01:43.510Z,8.02
2023-03-07T07:04:13.245Z,13.18
2023-03-07T07:06:40.397Z,4.05
2023-03-07T07:09:07.470Z,5.93
2023-03-07T07:11:34.808Z,5.97
2023-03-07T07:14:01.873Z,3.78
2023-03-07T07:16:29.188Z,7.53
2023-03-07T07:18:56.545Z,4.18
2023-03-07T07:21:24.305Z,2.70
2023-03-07T07:23:51.794Z,8.02
2023-03-07T07:26:19.041Z,4.90
2023-03-07T07:28:46.483Z,4.63
2023-03-07T07:31:13.778Z,4.25
2023-03-07T07:33:41.033Z,5.35
2023-03-07T07:36:08.843Z,3.38
2023-03-07T07:38:36.165Z,2.60
2023-03-07T07:41:03.291Z,3.00
2023-03-07T07:43:30.513Z,7.25
2023-03-07T07:45:58.643Z,3.58
2023-03-07T07:48:25.762Z,7.75
2023-03-07T07:50:52.870Z,2.83
2023-03-07T07:53:19.922Z,6.30
2023-03-07T07:55:48.798Z,3.85
2023-03-07T07:58:15.840Z,5.97
2023-03-07T08:00:42.965Z,7.82
2023-03-07T08:03:10.008Z,13.82
2023-03-07T08:05:37.288Z,6.78
2023-03-07T08:08:04.511Z,8.90
2023-03-07T08:10:31.813Z,9.50
2023-03-07T08:12:58.845Z,4.60
2023-03-07T08:15:25.878Z,5.93
2023-03-07T08:17:53.585Z,5.43
2023-03-07T08:20:22.544Z,7.20
2023-03-07T08:22:50.500Z,8.10
2023-03-07T08:25:23.666Z,11.35
2023-03-07T08:27:55.408Z,6.05
2023-03-07T08:30:23.672Z,8.77
2023-03-07T08:32:52.618Z,6.85
2023-03-07T08:35:20.012Z,7.75
2023-03-07T08:37:48.825Z,6.65
2023-03-07T08:40:16.599Z,5.63
2023-03-07T08:42:43.712Z,7.88
2023-03-07T08:45:11.182Z,7.43
2023-03-07T08:47:38.315Z,6.93
2023-03-07T08:50:05.948Z,11.23
2023-03-07T08:52:33.023Z,9.73
2023-03-07T08:55:00.148Z,4.70
2023-03-07T08:57:27.498Z,11.55
2023-03-07T08:59:54.492Z,4.80
2023-03-07T09:02:22.033Z,5.05
2023-03-07T09:04:49.129Z,4.80
2023-03-07T09:07:16.370Z,6.00
2023-03-07T09:09:43.417Z,7.00
2023-03-07T09:12:10.517Z,9.88
2023-03-07T09:14:37.558Z,5.55
2023-03-07T09:17:04.766Z,8.30
2023-03-07T09:19:31.812Z,7.05
2023-03-07T09:21:58.872Z,6.88
2023-03-07T09:24:25.922Z,6.13
2023-03-07T09:26:53.545Z,7.15
2023-03-07T09:29:20.980Z,8.85
2023-03-07T09:31:48.100Z,5.30
2023-03-07T09:34:15.936Z,7.13
2023-03-07T09:36:42.995Z,6.85
2023-03-07T09:39:14.371Z,3.60
2023-03-07T09:42:16.526Z,7.47
2023-03-07T09:45:01.893Z,3.90
2023-03-07T09:47:50.942Z,5.20
2023-03-07T09:50:28.648Z,4.88
2023-03-07T09:53:01.839Z,5.72
2023-03-07T09:55:31.218Z,4.15
2023-03-07T09:58:09.370Z,3.15
2023-03-07T10:00:42.870Z,10.85
2023-03-07T10:03:43.911Z,6.53
2023-03-07T10:06:16.502Z,3.60
2023-03-07T10:08:43.590Z,3.00
2023-03-07T10:11:25.973Z,4.30
2023-03-07T10:14:30.048Z,9.15
2023-03-07T10:17:05.409Z,3.00
2023-03-07T10:19:41.715Z,5.10
2023-03-07T10:22:34.621Z,5.22
2023-03-07T10:25:43.450Z,4.53
2023-03-07T10:28:33.119Z,3.67
2023-03-07T10:31:16.085Z,5.50
2023-03-07T10:33:46.816Z,4.88
2023-03-07T10:36:19.758Z,9.68
2023-03-07T10:39:04.495Z,3.60
2023-03-07T10:41:31.728Z,3.97
2023-03-07T10:43:58.977Z,5.68
2023-03-07T10:46:30.923Z,3.58
2023-03-07T10:49:09.872Z,4.57
2023-03-07T10:51:59.799Z,8.15
2023-03-07T10:54:38.349Z,10.27
2023-03-07T10:57:07.016Z,1.98
2023-03-07T10:59:35.482Z,6.40
2023-03-07T11:02:05.802Z,3.05
2023-03-07T11:04:45.710Z,6.15
2023-03-07T11:07:28.596Z,3.38
2023-03-07T11:09:58.549Z,4.53
2023-03-07T11:12:29.304Z,3.72
2023-03-07T11:15:21.418Z,4.55
2023-03-07T11:17:48.995Z,2.55
2023-03-07T11:20:30.670Z,5.07
2023-03-07T11:23:16.724Z,2.38
2023-03-07T11:25:44.856Z,0.82
2023-03-07T11:28:23.777Z,2.58
2023-03-07T11:30:57.570Z,5.28
2023-03-07T11:33:59.047Z,1.55
2023-03-07T11:36:35.955Z,5.68
2023-03-07T11:39:38.373Z,2.83
2023-03-07T11:42:23.000Z,4.22
2023-03-07T11:45:29.756Z,3.67
2023-03-07T11:48:12.121Z,3.10
2023-03-07T11:50:46.761Z,5.53
2023-03-07T11:53:27.706Z,9.82
2023-03-07T11:56:25.491Z,2.95
2023-03-07T11:58:58.609Z,4.60
2023-03-07T12:01:43.540Z,7.95
2023-03-07T12:04:38.549Z,2.22
2023-03-07T12:07:14.294Z,9.20
2023-03-07T12:09:54.567Z,7.93
2023-03-07T12:13:01.167Z,2.50
2023-03-07T12:15:39.507Z,5.95
2023-03-07T12:18:37.175Z,9.02
2023-03-07T12:21:10.205Z,6.35
2023-03-07T12:23:42.378Z,3.00
2023-03-07T12:26:19.887Z,1.92
2023-03-07T12:28:58.665Z,3.38
2023-03-07T12:31:40.420Z,2.28
2023-03-07T12:34:29.038Z,5.20
2023-03-07T12:37:03.038Z,1.08
2023-03-07T12:39:49.633Z,7.45
2023-03-07T12:42:38.487Z,3.13
2023-03-07T12:45:12.609Z,1.92
2023-03-07T12:47:58.467Z,4.00
2023-03-07T12:51:00.579Z,2.40
2023-03-07T12:53:40.462Z,2.53
2023-03-07T12:56:19.846Z,2.97
2023-03-07T12:59:07.471Z,2.03
2023-03-07T13:01:40.220Z,1.42
2023-03-07T13:04:18.093Z,4.90
2023-03-07T13:06:46.688Z,1.80
2023-03-07T13:09:24.993Z,0.65
2023-03-07T13:12:24.603Z,3.50
2023-03-07T13:15:03.838Z,2.05
2023-03-07T13:17:30.955Z,4.20
2023-03-07T13:20:16.377Z,7.45
2023-03-07T13:22:43.537Z,4.38
2023-03-07T13:25:19.366Z,0.75
2023-03-07T13:27:57.976Z,1.00
2023-03-07T13:30:31.702Z,2.95
2023-03-07T13:35:31.824Z,5.88
2023-03-07T13:38:33.007Z,3.35
2023-03-07T13:41:04.988Z,2.88
2023-03-07T13:43:57.349Z,3.53
2023-03-07T13:46:42.520Z,1.23
2023-03-07T13:49:09.570Z,1.30
2023-03-07T13:51:36.777Z,9.25
2023-03-07T13:54:10.359Z,4.07
2023-03-07T13:56:42.407Z,1.85
2023-03-07T13:59:09.424Z,4.43
2023-03-07T14:01:40.546Z,12.63
2023-03-07T14:04:42.109Z,2.75
2023-03-07T14:07:24.988Z,3.30
2023-03-07T14:09:59.003Z,2.40
2023-03-07T14:13:05.474Z,2.03
2023-03-07T14:15:50.413Z,2.60
2023-03-07T14:18:26.171Z,5.30
2023-03-07T14:21:26.227Z,1.65
2023-03-07T14:24:10.659Z,2.40
2023-03-07T14:26:42.128Z,3.83
2023-03-07T14:29:24.410Z,5.93
2023-03-07T14:31:54.554Z,2.22
2023-03-07T14:34:21.544Z,1.35
2023-03-07T14:37:07.071Z,2.35
2023-03-07T14:40:15.870Z,2.00
2023-03-07T14:43:20.550Z,0.80
2023-03-07T14:46:12.854Z,0.70
2023-03-07T14:48:54.883Z,1.30
2023-03-07T14:51:26.381Z,1.13
2023-03-07T14:53:56.060Z,2.28
2023-03-07T14:56:32.405Z,1.15
2023-03-07T14:59:01.919Z,3.75
2023-03-07T15:01:35.558Z,0.80
2023-03-07T15:06:30.975Z,3.17
2023-03-07T15:09:01.152Z,3.35
2023-03-07T15:11:37.669Z,4.13
2023-03-07T15:14:30.689Z,2.30
2023-03-07T15:17:05.033Z,2.20
2023-03-07T15:19:40.743Z,2.67
2023-03-07T15:22:17.750Z,8.85
2023-03-07T15:24:48.985Z,1.60
2023-03-07T15:27:31.438Z,1.83
2023-03-07T15:30:03.069Z,1.85
2023-03-07T15:32:38.936Z,0.77
2023-03-07T15:35:05.929Z,3.28
2023-03-07T15:37:34.467Z,1.23
2023-03-07T15:40:22.378Z,4.35
2023-03-07T15:42:53.634Z,2.78
2023-03-07T15:45:38.431Z,1.58
2023-03-07T15:48:16.954Z,2.50
2023-03-07T15:50:51.057Z,2.90
2023-03-07T15:53:27.741Z,1.73
2023-03-07T15:56:00.600Z,2.17
2023-03-07T15:58:29.859Z,2.37
2023-03-07T16:01:05.946Z,1.20
2023-03-07T16:03:33.465Z,3.83
2023-03-07T16:06:01.709Z,4.07
2023-03-07T16:08:29.225Z,5.55
2023-03-07T16:11:02.795Z,5.35
2023-03-07T16:13:32.934Z,5.18
2023-03-07T16:16:07.373Z,2.03
2023-03-07T16:18:34.936Z,2.60
2023-03-07T16:21:01.960Z,9.98
2023-03-07T16:23:31.247Z,7.82
2023-03-07T16:26:02.623Z,5.28
2023-03-07T16:28:29.815Z,1.50
2023-03-07T16:30:57.493Z,5.50
2023-03-07T16:33:24.844Z,1.73
2023-03-07T16:35:52.573Z,10.73
2023-03-07T16:38:19.694Z,3.05
2023-03-07T16:40:46.779Z,5.18
2023-03-07T16:43:34.988Z,3.42
2023-03-07T16:46:04.716Z,2.42
2023-03-07T16:48:32.580Z,5.38
2023-03-07T16:50:59.583Z,4.03
2023-03-07T16:53:29.281Z,9.10
2023-03-07T16:55:59.439Z,4.65
2023-03-07T16:58:31.001Z,3.08
2023-03-07T17:01:01.073Z,2.10
2023-03-07T17:03:30.416Z,4.22
2023-03-07T17:06:00.420Z,6.82
2023-03-07T17:08:27.804Z,7.18
2023-03-07T17:10:55.543Z,5.15
2023-03-07T17:13:23.078Z,3.28
2023-03-07T17:15:50.302Z,4.45
2023-03-07T17:18:17.367Z,8.98
2023-03-07T17:20:44.429Z,2.22
2023-03-07T17:23:11.435Z,3.45
2023-03-07T17:25:40.130Z,2.97
2023-03-07T17:28:12.733Z,0.88
2023-03-07T17:30:42.928Z,1.25
2023-03-07T17:33:11.781Z,5.45
2023-03-07T17:35:39.035Z,1.58
2023-03-07T17:38:06.293Z,1.92
2023-03-07T17:40:33.361Z,2.08
2023-03-07T17:43:00.398Z,1.25
2023-03-07T17:45:28.408Z,1.15
2023-03-07T17:47:55.550Z,2.15
2023-03-07T17:50:26.213Z,3.92
2023-03-07T17:52:54.786Z,1.48
2023-03-07T17:55:26.352Z,1.23
2023-03-07T17:57:53.823Z,2.45
2023-03-07T18:00:22.045Z,1.83
2023-03-07T18:02:49.258Z,6.25
2023-03-07T18:05:16.407Z,1.88
2023-03-07T18:07:43.518Z,3.28
2023-03-07T18:10:12.627Z,5.90
2023-03-07T18:12:39.825Z,3.25
2023-03-07T18:15:11.867Z,2.75
2023-03-07T18:17:47.774Z,5.28
2023-03-07T18:20:20.321Z,2.50
2023-03-07T18:22:48.363Z,3.08
2023-03-07T18:25:17.889Z,2.45
2023-03-07T18:27:45.983Z,4.90
2023-03-07T18:30:14.015Z,3.15
2023-03-07T18:32:41.204Z,2.10
2023-03-07T18:35:08.691Z,5.97
2023-03-07T18:37:35.820Z,7.90
2023-03-07T18:40:04.268Z,11.55
2023-03-07T18:42:31.324Z,9.70
2023-03-07T18:44:58.731Z,9.93
2023-03-07T18:47:25.724Z,11.23
2023-03-07T18:49:52.840Z,13.32
2023-03-07T18:52:19.887Z,10.57
2023-03-07T18:54:48.434Z,8.05
2023-03-07T18:57:15.678Z,7.57
2023-03-07T18:59:42.767Z,4.63
2023-03-07T19:02:10.491Z,7.70
2023-03-07T19:04:37.803Z,4.93
2023-03-07T19:07:04.831Z,5.22
2023-03-07T19:09:32.047Z,8.50
2023-03-07T19:11:59.134Z,7.60
2023-03-07T19:14:26.436Z,8.65
2023-03-07T19:16:54.316Z,21.38
2023-03-07T19:19:21.435Z,12.32
2023-03-07T19:21:48.615Z,14.82
2023-03-07T19:24:15.615Z,11.88
2023-03-07T19:26:43.313Z,10.88
2023-03-07T19:29:12.196Z,13.27
2023-03-07T19:31:39.312Z,15.98
2023-03-07T19:34:06.615Z,16.98
2023-03-07T19:36:35.232Z,20.75
2023-03-07T19:39:04.121Z,21.83
2023-03-07T19:41:32.089Z,29.80
2023-03-07T19:44:00.921Z,30.45
2023-03-07T19:46:31.122Z,13.50
2023-03-07T19:49:01.267Z,12.55
2023-03-07T19:51:31.111Z,12.05
2023-03-07T19:53:58.788Z,17.05
2023-03-07T19:56:30.379Z,11.82
2023-03-07T19:59:00.123Z,11.48
2023-03-07T20:01:28.543Z,16.95
2023-03-07T20:03:56.051Z,11.50
2023-03-07T20:06:25.531Z,8.65
2023-03-07T20:08:54.705Z,8.10
2023-03-07T20:11:30.886Z,12.18
2023-03-07T20:14:00.317Z,10.25
2023-03-07T20:16:31.464Z,8.88
2023-03-07T20:19:04.185Z,10.75
2023-03-07T20:21:32.998Z,9.93
2023-03-07T20:24:00.252Z,8.05
2023-03-07T20:26:36.439Z,9.95
2023-03-07T20:29:05.619Z,11.00
2023-03-07T20:31:33.186Z,5.57
2023-03-07T20:34:00.388Z,6.70
2023-03-07T20:36:30.192Z,8.10
2023-03-07T20:38:59.803Z,7.18
2023-03-07T20:41:32.307Z,3.65
2023-03-07T20:44:04.678Z,7.85
2023-03-07T20:46:32.746Z,3.67
2023-03-07T20:49:01.588Z,5.20
2023-03-07T20:51:31.855Z,5.38
2023-03-07T20:54:11.823Z,5.57
2023-03-07T20:56:39.641Z,5.97
2023-03-07T20:59:07.695Z,8.40
2023-03-07T21:01:35.543Z,7.13
2023-03-07T21:04:07.938Z,17.40
2023-03-07T21:06:36.542Z,8.80
2023-03-07T21:09:07.997Z,9.45
2023-03-07T21:11:36.975Z,11.32
2023-03-07T21:14:04.216Z,13.75
2023-03-07T21:16:31.639Z,24.90
2023-03-07T21:19:01.619Z,31.20
2023-03-07T21:21:30.310Z,11.50
2023-03-07T21:23:58.458Z,7.90
2023-03-07T21:26:28.608Z,6.57
2023-03-07T21:28:57.450Z,8.88
2023-03-07T21:31:29.684Z,5.35
2023-03-07T21:34:00.436Z,10.57
2023-03-07T21:36:29.318Z,9.63
2023-03-07T21:38:56.361Z,9.43
2023-03-07T21:41:25.160Z,11.27
2023-03-07T21:43:54.319Z,8.48
2023-03-07T21:46:21.978Z,11.15
2023-03-07T21:48:49.340Z,20.48
2023-03-07T21:51:16.663Z,14.32
2023-03-07T21:53:43.911Z,14.20
2023-03-07T21:56:13.515Z,14.15
2023-03-07T21:58:40.831Z,17.02
2023-03-07T22:01:12.963Z,14.05
2023-03-07T22:03:40.623Z,14.60
2023-03-07T22:06:09.762Z,11.40
2023-03-07T22:08:37.214Z,13.10
2023-03-07T22:11:06.921Z,12.75
2023-03-07T22:13:36.193Z,12.52
2023-03-07T22:16:06.122Z,7.78
2023-03-07T22:18:33.237Z,7.18
2023-03-07T22:21:05.827Z,7.45
2023-03-07T22:23:32.880Z,10.75
2023-03-07T22:26:04.220Z,13.18
2023-03-07T22:28:31.353Z,11.20
2023-03-07T22:31:03.602Z,12.88
2023-03-07T22:33:31.215Z,6.93
2023-03-07T22:36:00.762Z,7.97
2023-03-07T22:38:29.157Z,7.13
2023-03-07T22:41:03.423Z,6.60
2023-03-07T22:43:32.152Z,5.72
2023-03-07T22:45:59.671Z,12.55
2023-03-07T22:48:28.798Z,7.38
2023-03-07T22:50:56.239Z,5.30
2023-03-07T22:53:26.679Z,5.13
2023-03-07T22:55:54.827Z,4.22
2023-03-07T22:58:22.063Z,5.47
2023-03-07T23:00:49.155Z,13.40
2023-03-07T23:03:16.296Z,8.20
2023-03-07T23:05:44.278Z,7.95
2023-03-07T23:08:11.387Z,9.20
2023-03-07T23:10:38.966Z,7.57
2023-03-07T23:13:06.178Z,7.45
2023-03-07T23:15:33.314Z,5.28
2023-03-07T23:18:00.457Z,5.28
2023-03-07T23:20:28.924Z,5.05
2023-03-07T23:22:56.002Z,5.20
2023-03-07T23:25:23.140Z,4.68
2023-03-07T23:27:50.288Z,6.53
2023-03-07T23:30:17.835Z,6.82
2023-03-07T23:32:45.058Z,6.15
2023-03-07T23:35:12.622Z,5.93
2023-03-07T23:37:42.451Z,4.57
2023-03-07T23:40:11.946Z,5.43
2023-03-07T23:42:39.249Z,6.05
2023-03-07T23:45:06.694Z,10.60
2023-03-07T23:47:34.319Z,5.50
2023-03-07T23:50:01.327Z,5.65
2023-03-07T23:52:28.914Z,3.95
2023-03-07T23:54:56.027Z,2.72
2023-03-07T23:57:23.057Z,7.18
2023-03-07T23:59:50.126Z,2.78
